createdAt,value
2019-04-29T00:01:51.592Z,3.40
2019-04-29T00:04:19.931Z,3.67
2019-04-29T00:06:48.356Z,3.30
2019-04-29T00:09:16.688Z,3.57
2019-04-29T00:11:45.044Z,3.70
2019-04-29T00:14:13.501Z,5.00
2019-04-29T00:19:41.712Z,5.05
2019-04-29T00:22:10.106Z,4.50
2019-04-29T00:24:38.439Z,5.60
2019-04-29T00:27:06.783Z,4.83
2019-04-29T00:29:35.111Z,4.53
2019-04-29T00:32:03.455Z,5.00
2019-04-29T00:34:31.885Z,5.10
2019-04-29T00:37:15.876Z,5.17
2019-04-29T00:39:46.168Z,4.30
2019-04-29T00:42:14.496Z,6.28
2019-04-29T00:47:17.095Z,7.60
2019-04-29T00:49:45.484Z,4.60
2019-04-29T00:52:13.808Z,5.90
2019-04-29T00:54:42.588Z,6.60
2019-04-29T00:57:11.700Z,5.40
2019-04-29T00:59:40.075Z,4.90
2019-04-29T01:02:08.404Z,6.43
2019-04-29T01:04:36.796Z,4.80
2019-04-29T01:07:05.136Z,4.67
2019-04-29T01:09:33.478Z,5.10
2019-04-29T01:12:01.837Z,5.35
2019-04-29T01:14:30.268Z,6.05
2019-04-29T01:16:58.668Z,4.90
2019-04-29T01:19:27.087Z,5.30
2019-04-29T01:21:55.516Z,7.50
2019-04-29T01:24:23.901Z,4.57
2019-04-29T01:27:03.900Z,8.43
2019-04-29T01:29:32.250Z,5.10
2019-04-29T01:32:00.617Z,4.30
2019-04-29T01:34:28.951Z,7.10
2019-04-29T01:36:57.401Z,4.50
2019-04-29T01:39:25.731Z,5.73
2019-04-29T01:44:33.257Z,5.30
2019-04-29T01:47:01.592Z,6.33
2019-04-29T01:49:29.943Z,5.67
2019-04-29T01:51:58.350Z,4.67
2019-04-29T01:54:26.730Z,5.37
2019-04-29T01:56:55.102Z,5.67
2019-04-29T01:59:23.426Z,4.13
2019-04-29T02:01:51.873Z,4.33
2019-04-29T02:04:20.229Z,5.80
2019-04-29T02:06:48.741Z,5.87
2019-04-29T02:09:17.082Z,5.60
2019-04-29T02:11:45.481Z,4.87
2019-04-29T02:14:13.821Z,5.33
2019-04-29T02:19:16.336Z,5.07
2019-04-29T02:21:45.706Z,5.13
2019-04-29T02:24:14.490Z,5.63
2019-04-29T02:26:42.844Z,5.80
2019-04-29T02:29:11.177Z,5.63
2019-04-29T02:31:39.533Z,4.97
2019-04-29T02:34:07.892Z,5.03
2019-04-29T02:36:36.202Z,5.17
2019-04-29T02:39:22.089Z,5.00
2019-04-29T02:41:52.811Z,4.53
2019-04-29T02:44:21.141Z,7.10
2019-04-29T02:46:49.487Z,6.90
2019-04-29T02:49:17.881Z,4.80
2019-04-29T02:51:46.218Z,7.47
2019-04-29T02:54:14.555Z,7.53
2019-04-29T02:56:42.922Z,7.35
2019-04-29T03:02:11.514Z,6.62
2019-04-29T03:04:45.424Z,5.90
2019-04-29T03:07:13.805Z,5.33
2019-04-29T03:09:44.674Z,7.47
2019-04-29T03:12:13.020Z,5.87
2019-04-29T03:14:41.428Z,6.33
2019-04-29T03:17:11.752Z,5.73
2019-04-29T03:19:45.663Z,6.13
2019-04-29T03:22:13.980Z,6.10
2019-04-29T03:24:42.312Z,7.13
2019-04-29T03:27:10.697Z,9.47
2019-04-29T03:29:39.083Z,6.40
2019-04-29T03:32:07.422Z,6.13
2019-04-29T03:34:35.768Z,7.90
2019-04-29T03:37:04.095Z,10.00
2019-04-29T03:42:09.715Z,8.05
2019-04-29T03:44:38.083Z,6.40
2019-04-29T03:47:06.672Z,7.40
2019-04-29T03:49:35.048Z,7.27
2019-04-29T03:52:03.385Z,6.93
2019-04-29T03:54:33.657Z,6.40
2019-04-29T03:57:02.052Z,7.75
2019-04-29T03:59:30.653Z,9.63
2019-04-29T04:02:04.001Z,7.40
2019-04-29T04:04:37.862Z,6.00
2019-04-29T04:09:40.612Z,7.50
2019-04-29T04:12:09.014Z,6.77
2019-04-29T04:14:37.350Z,8.10
2019-04-29T04:17:07.451Z,7.83
2019-04-29T04:19:35.824Z,8.30
2019-04-29T04:22:04.149Z,10.47
2019-04-29T04:24:32.581Z,7.57
2019-04-29T04:27:00.960Z,7.77
2019-04-29T04:29:29.362Z,7.60
2019-04-29T04:31:57.747Z,7.40
2019-04-29T04:34:26.138Z,6.40
2019-04-29T04:36:54.469Z,6.43
2019-04-29T04:42:00.489Z,12.15
2019-04-29T04:47:23.251Z,10.30
2019-04-29T04:49:51.623Z,8.70
2019-04-29T04:52:19.957Z,8.57
2019-04-29T04:54:49.122Z,6.33
2019-04-29T04:59:51.700Z,10.18
2019-04-29T05:02:20.021Z,8.87
2019-04-29T05:04:48.366Z,8.20
2019-04-29T05:07:16.761Z,12.40
2019-04-29T05:09:45.342Z,8.70
2019-04-29T05:12:14.243Z,8.57
2019-04-29T05:14:42.008Z,7.00
2019-04-29T05:17:10.367Z,9.23
2019-04-29T05:19:38.708Z,7.40
2019-04-29T05:22:07.066Z,6.10
2019-04-29T05:24:35.436Z,8.27
2019-04-29T05:27:03.780Z,10.03
2019-04-29T05:29:32.164Z,6.73
2019-04-29T05:34:34.844Z,8.88
2019-04-29T05:37:06.551Z,8.43
2019-04-29T05:39:35.236Z,9.07
2019-04-29T05:42:07.704Z,7.10
2019-04-29T05:44:34.583Z,9.30
2019-04-29T05:50:02.792Z,7.60
2019-04-29T05:55:05.322Z,8.30
2019-04-29T05:57:34.655Z,8.15
2019-04-29T06:00:03.002Z,7.57
2019-04-29T06:02:33.232Z,7.23
2019-04-29T06:04:59.709Z,6.00
2019-04-29T06:07:28.103Z,9.67
2019-04-29T06:09:56.437Z,7.10
2019-04-29T06:12:24.758Z,7.73
2019-04-29T06:14:53.149Z,6.13
2019-04-29T06:17:22.548Z,7.50
2019-04-29T06:19:50.881Z,7.43
2019-04-29T06:22:19.208Z,7.37
2019-04-29T06:24:47.607Z,8.33
2019-04-29T06:27:15.982Z,6.73
2019-04-29T06:29:44.308Z,9.10
2019-04-29T06:32:13.598Z,12.13
2019-04-29T06:34:41.948Z,8.73
2019-04-29T06:37:10.338Z,8.73
2019-04-29T06:39:38.666Z,6.30
2019-04-29T06:42:07.205Z,5.97
2019-04-29T06:44:35.588Z,8.63
2019-04-29T06:47:03.925Z,6.50
2019-04-29T06:49:32.352Z,11.10
2019-04-29T06:52:01.656Z,7.40
2019-04-29T06:54:30.048Z,9.10
2019-04-29T06:56:58.476Z,9.33
2019-04-29T06:59:26.921Z,6.23
2019-04-29T07:01:55.250Z,6.40
2019-04-29T07:04:23.577Z,6.60
2019-04-29T07:06:57.651Z,6.10
2019-04-29T07:09:20.353Z,6.90
2019-04-29T07:11:48.839Z,10.07
2019-04-29T07:14:17.157Z,6.27
2019-04-29T07:16:45.604Z,7.50
2019-04-29T07:19:13.979Z,6.50
2019-04-29T07:21:47.099Z,8.93
2019-04-29T07:26:45.001Z,7.25
2019-04-29T07:29:13.344Z,7.13
2019-04-29T07:31:41.743Z,6.50
2019-04-29T07:34:10.108Z,6.43
2019-04-29T07:36:38.447Z,6.70
2019-04-29T07:39:06.898Z,7.03
2019-04-29T07:41:35.274Z,7.30
2019-04-29T07:44:03.612Z,6.67
2019-04-29T07:46:55.176Z,8.23
2019-04-29T07:49:05.714Z,7.40
2019-04-29T07:51:34.893Z,6.80
2019-04-29T07:56:37.781Z,7.55
2019-04-29T07:59:04.344Z,6.67
2019-04-29T08:01:31.311Z,8.93
2019-04-29T08:03:59.644Z,9.47
2019-04-29T08:06:28.005Z,7.78
2019-04-29T08:09:02.901Z,11.07
2019-04-29T08:13:59.105Z,8.23
2019-04-29T08:16:27.477Z,8.20
2019-04-29T08:18:55.846Z,9.93
2019-04-29T08:21:24.190Z,6.70
2019-04-29T08:23:52.537Z,7.80
2019-04-29T08:26:20.878Z,7.57
2019-04-29T08:28:53.059Z,8.97
2019-04-29T08:31:21.067Z,6.30
2019-04-29T08:33:46.813Z,11.00
2019-04-29T08:36:15.379Z,8.17
2019-04-29T08:38:43.775Z,9.65
2019-04-29T08:41:12.148Z,7.60
2019-04-29T08:43:52.441Z,8.10
2019-04-29T08:46:25.153Z,8.53
2019-04-29T08:48:53.497Z,7.23
2019-04-29T08:51:21.849Z,9.87
2019-04-29T08:53:50.181Z,9.47
2019-04-29T08:56:18.521Z,9.60
2019-04-29T08:58:49.301Z,9.77
2019-04-29T09:01:15.230Z,10.03
2019-04-29T09:06:17.867Z,9.77
2019-04-29T09:08:54.758Z,15.13
2019-04-29T09:11:14.635Z,12.10
2019-04-29T09:16:17.141Z,12.20
2019-04-29T09:21:19.732Z,11.40
2019-04-29T09:23:48.087Z,17.50
2019-04-29T09:29:15.386Z,12.90
2019-04-29T09:36:52.160Z,11.60
2019-04-29T09:39:21.373Z,9.60
2019-04-29T09:41:54.560Z,9.77
2019-04-29T09:47:04.147Z,10.18
2019-04-29T09:52:06.766Z,10.97
2019-04-29T09:54:35.143Z,12.35
2019-04-29T09:57:03.525Z,18.23
2019-04-29T10:02:10.152Z,10.65
2019-04-29T10:04:40.549Z,11.97
2019-04-29T10:07:09.202Z,14.87
2019-04-29T10:12:11.828Z,13.27
2019-04-29T10:14:40.172Z,11.10
2019-04-29T10:19:55.624Z,12.45
2019-04-29T10:24:58.156Z,13.35
2019-04-29T10:27:26.500Z,13.43
2019-04-29T10:32:29.114Z,13.75
2019-04-29T10:34:57.465Z,12.43
2019-04-29T10:37:31.383Z,12.90
2019-04-29T10:40:10.550Z,10.47
2019-04-29T10:42:46.035Z,12.87
2019-04-29T10:50:24.712Z,13.23
2019-04-29T10:52:53.134Z,15.07
2019-04-29T10:55:25.543Z,15.33
2019-04-29T11:03:02.237Z,9.80
2019-04-29T11:05:30.579Z,12.15
2019-04-29T11:10:33.123Z,9.53
2019-04-29T11:13:01.564Z,9.15
2019-04-29T11:15:32.775Z,8.15
2019-04-29T11:18:03.466Z,8.97
2019-04-29T11:23:18.425Z,9.10
2019-04-29T11:25:52.349Z,7.70
2019-04-29T11:33:30.370Z,8.57
2019-04-29T11:38:54.001Z,8.80
2019-04-29T11:43:56.692Z,8.05
2019-04-29T11:46:26.040Z,6.27
2019-04-29T11:48:54.406Z,6.03
2019-04-29T11:51:23.649Z,8.88
2019-04-29T11:53:52.065Z,9.90
2019-04-29T11:56:20.427Z,6.63
2019-04-29T12:01:38.716Z,7.40
2019-04-29T12:04:05.364Z,8.43
2019-04-29T12:11:43.554Z,5.80
2019-04-29T12:14:11.888Z,7.97
2019-04-29T12:16:43.512Z,5.93
2019-04-29T12:21:46.111Z,8.25
2019-04-29T12:24:14.492Z,8.67
2019-04-29T12:26:44.456Z,11.73
2019-04-29T12:29:13.747Z,7.40
2019-04-29T12:31:40.576Z,9.03
2019-04-29T12:36:56.002Z,7.70
2019-04-29T12:44:34.942Z,6.22
2019-04-29T12:46:54.492Z,7.03
2019-04-29T12:49:22.842Z,6.37
2019-04-29T12:51:51.197Z,4.70
2019-04-29T12:54:19.577Z,7.00
2019-04-29T12:56:49.538Z,6.47
2019-04-29T12:59:16.521Z,5.37
2019-04-29T13:01:57.988Z,4.43
2019-04-29T13:04:28.010Z,6.70
2019-04-29T13:09:36.762Z,7.45
2019-04-29T13:12:18.003Z,7.03
2019-04-29T13:14:34.830Z,6.33
2019-04-29T13:17:14.488Z,5.75
2019-04-29T13:22:10.473Z,5.57
2019-04-29T13:24:42.550Z,5.63
2019-04-29T13:29:42.171Z,5.70
2019-04-29T13:32:10.533Z,7.30
2019-04-29T13:34:38.876Z,7.17
2019-04-29T13:37:12.314Z,4.33
2019-04-29T13:39:39.977Z,5.50
2019-04-29T13:42:09.146Z,5.13
2019-04-29T13:49:49.166Z,4.97
2019-04-29T13:54:47.232Z,6.20
2019-04-29T13:57:16.312Z,5.33
2019-04-29T14:04:56.069Z,6.87
2019-04-29T14:07:23.118Z,6.23
2019-04-29T14:09:51.699Z,4.53
2019-04-29T14:14:48.464Z,5.50
2019-04-29T14:17:25.823Z,5.30
2019-04-29T14:22:22.353Z,5.28
2019-04-29T14:24:48.744Z,5.30
2019-04-29T14:27:24.603Z,4.93
2019-04-29T14:29:45.448Z,4.77
2019-04-29T14:32:18.149Z,5.00
2019-04-29T14:34:58.875Z,7.90
2019-04-29T14:40:02.908Z,6.10
2019-04-29T14:42:31.942Z,4.90
2019-04-29T14:45:00.023Z,6.37
2019-04-29T14:50:05.718Z,5.35
2019-04-29T14:55:14.868Z,6.00
2019-04-29T14:57:40.783Z,5.10
2019-04-29T15:00:09.117Z,4.57
2019-04-29T15:05:14.040Z,4.80
2019-04-29T15:07:41.207Z,8.87
2019-04-29T15:10:09.493Z,4.57
2019-04-29T15:12:56.746Z,4.70
2019-04-29T15:17:57.980Z,5.95
2019-04-29T15:20:36.309Z,6.33
2019-04-29T15:23:04.659Z,6.07
2019-04-29T15:25:33.025Z,6.20
2019-04-29T15:28:01.388Z,4.90
2019-04-29T15:30:31.730Z,5.05
2019-04-29T15:32:59.676Z,5.67
2019-04-29T15:38:00.700Z,6.70
2019-04-29T15:40:29.216Z,5.30
2019-04-29T15:42:57.656Z,5.27
2019-04-29T15:45:28.005Z,5.50
2019-04-29T15:47:54.159Z,6.30
2019-04-29T15:50:22.473Z,6.23
2019-04-29T15:55:28.161Z,6.50
2019-04-29T15:57:56.526Z,7.18
2019-04-29T16:00:25.969Z,7.50
2019-04-29T16:02:53.615Z,10.33
2019-04-29T16:08:21.257Z,10.85
2019-04-29T16:10:51.659Z,7.67
2019-04-29T16:13:22.672Z,7.00
2019-04-29T16:15:47.513Z,8.13
2019-04-29T16:20:53.949Z,10.38
2019-04-29T16:23:18.463Z,9.03
2019-04-29T16:25:52.187Z,10.57
2019-04-29T16:28:16.066Z,9.90
2019-04-29T16:30:44.444Z,7.63
2019-04-29T16:33:14.106Z,7.47
2019-04-29T16:38:16.449Z,9.50
2019-04-29T16:40:51.503Z,8.73
2019-04-29T16:45:55.721Z,12.73
2019-04-29T16:48:24.054Z,9.87
2019-04-29T16:50:52.462Z,8.10
2019-04-29T16:53:21.887Z,10.43
2019-04-29T16:58:24.539Z,12.00
2019-04-29T17:00:54.843Z,12.33
2019-04-29T17:03:21.264Z,12.93
2019-04-29T17:05:49.766Z,11.40
2019-04-29T17:08:18.093Z,10.10
2019-04-29T17:10:53.739Z,8.00
2019-04-29T17:13:23.709Z,11.50
2019-04-29T17:15:52.311Z,12.32
2019-04-29T17:18:18.776Z,16.33
2019-04-29T17:20:47.146Z,14.10
2019-04-29T17:23:23.628Z,10.83
2019-04-29T17:25:43.891Z,12.03
2019-04-29T17:28:29.265Z,10.03
2019-04-29T17:33:57.342Z,12.37
2019-04-29T17:36:25.864Z,12.10
2019-04-29T17:41:28.124Z,13.88
2019-04-29T17:44:08.233Z,12.40
2019-04-29T17:51:55.731Z,13.00
2019-04-29T17:54:37.829Z,12.13
2019-04-29T18:00:08.885Z,11.65
2019-04-29T18:02:37.338Z,12.97
